createdAt,value
2018-07-13T00:01:12.562Z,102120.53
2018-07-13T00:03:41.453Z,102115.16
2018-07-13T00:06:10.402Z,102119.91
2018-07-13T00:08:39.347Z,102125.13
2018-07-13T00:11:08.331Z,102132.34
2018-07-13T00:13:48.648Z,102125.74
2018-07-13T00:16:17.602Z,102128.16
2018-07-13T00:18:46.570Z,102121.10
2018-07-13T00:21:15.591Z,102127.09
2018-07-13T00:23:44.506Z,102123.81
2018-07-13T00:26:13.488Z,102119.96
2018-07-13T00:28:42.445Z,102120.33
2018-07-13T00:31:11.397Z,102121.22
2018-07-13T00:33:40.700Z,102120.82
2018-07-13T00:36:09.673Z,102123.73
2018-07-13T00:38:38.645Z,102127.38
2018-07-13T00:41:07.639Z,102123.20
2018-07-13T00:43:36.573Z,102123.41
2018-07-13T00:46:05.553Z,102123.12
2018-07-13T00:48:34.501Z,102123.81
2018-07-13T00:51:03.520Z,102125.61
2018-07-13T00:53:32.468Z,102124.75
2018-07-13T00:56:01.400Z,102124.55
2018-07-13T00:58:30.420Z,102129.05
2018-07-13T01:00:59.390Z,102128.16
2018-07-13T01:03:28.385Z,102127.75
2018-07-13T01:05:57.338Z,102125.82
2018-07-13T01:08:26.286Z,102119.47
2018-07-13T01:10:55.263Z,102119.34
2018-07-13T01:13:24.268Z,102126.44
2018-07-13T01:15:56.150Z,102123.84
2018-07-13T01:18:25.065Z,102123.48
2018-07-13T01:20:54.055Z,102117.78
2018-07-13T01:23:22.990Z,102115.33
2018-07-13T01:25:51.967Z,102112.86
2018-07-13T01:28:20.918Z,102113.89
2018-07-13T01:30:49.905Z,102114.70
2018-07-13T01:33:18.861Z,102124.71
2018-07-13T01:35:47.778Z,102122.87
2018-07-13T01:38:16.740Z,102115.72
2018-07-13T01:40:45.677Z,102116.59
2018-07-13T01:43:14.688Z,102119.91
2018-07-13T01:45:43.679Z,102117.39
2018-07-13T01:48:12.636Z,102123.73
2018-07-13T01:50:41.570Z,102117.38
2018-07-13T01:53:10.544Z,102120.70
2018-07-13T01:55:39.565Z,102126.64
2018-07-13T01:58:08.528Z,102128.00
2018-07-13T02:00:37.492Z,102117.28
2018-07-13T02:03:06.454Z,102125.32
2018-07-13T02:05:35.452Z,102120.19
2018-07-13T02:08:04.369Z,102118.55
2018-07-13T02:10:33.352Z,102112.20
2018-07-13T02:13:02.334Z,102105.59
2018-07-13T02:15:31.320Z,102109.33
2018-07-13T02:18:00.320Z,102108.76
2018-07-13T02:20:29.252Z,102106.42
2018-07-13T02:22:58.201Z,102108.92
2018-07-13T02:25:27.218Z,102101.91
2018-07-13T02:27:56.126Z,102095.71
2018-07-13T02:30:25.062Z,102092.98
2018-07-13T02:32:54.032Z,102097.10
2018-07-13T02:35:23.035Z,102094.11
2018-07-13T02:37:51.988Z,102088.70
2018-07-13T02:40:20.924Z,102094.23
2018-07-13T02:42:49.904Z,102096.29
2018-07-13T02:45:18.809Z,102102.52
2018-07-13T02:47:47.847Z,102103.01
2018-07-13T02:50:16.772Z,102105.75
2018-07-13T02:52:45.697Z,102109.61
2018-07-13T02:55:14.703Z,102109.53
2018-07-13T02:57:43.681Z,102113.62
2018-07-13T03:00:12.741Z,102117.59
2018-07-13T03:02:41.687Z,102114.69
2018-07-13T03:05:10.642Z,102120.97
2018-07-13T03:07:39.622Z,102120.11
2018-07-13T03:10:08.604Z,102119.27
2018-07-13T03:12:37.575Z,102117.94
2018-07-13T03:15:06.745Z,102120.41
2018-07-13T03:17:35.702Z,102121.77
2018-07-13T03:20:04.690Z,102124.14
2018-07-13T03:22:33.732Z,102130.16
2018-07-13T03:25:09.167Z,102131.36
2018-07-13T03:27:38.153Z,102139.84
2018-07-13T03:30:07.093Z,102139.70
2018-07-13T03:32:36.087Z,102147.33
2018-07-13T03:35:05.038Z,102146.45
2018-07-13T03:37:34.003Z,102148.33
2018-07-13T03:40:02.963Z,102149.38
2018-07-13T03:42:32.021Z,102150.06
2018-07-13T03:45:00.934Z,102152.13
2018-07-13T03:47:29.881Z,102151.58
2018-07-13T03:49:58.818Z,102149.77
2018-07-13T03:52:27.823Z,102150.11
2018-07-13T03:54:56.781Z,102152.33
2018-07-13T03:57:25.775Z,102150.31
2018-07-13T03:59:54.773Z,102149.56
2018-07-13T04:02:23.751Z,102148.73
2018-07-13T04:04:52.793Z,102153.55
2018-07-13T04:07:21.713Z,102146.74
2018-07-13T04:09:50.677Z,102140.83
2018-07-13T04:12:19.635Z,102141.98
2018-07-13T04:14:48.658Z,102140.54
2018-07-13T04:17:17.583Z,102139.19
2018-07-13T04:19:49.436Z,102137.72
2018-07-13T04:22:18.409Z,102138.46
2018-07-13T04:24:47.397Z,102138.74
2018-07-13T04:27:16.493Z,102138.50
2018-07-13T04:29:46.051Z,102138.46
2018-07-13T04:32:15.037Z,102138.78
2018-07-13T04:34:43.961Z,102133.31
2018-07-13T04:37:12.950Z,102135.64
2018-07-13T04:39:41.875Z,102126.88
2018-07-13T04:42:10.925Z,102124.91
2018-07-13T04:44:39.864Z,102120.45
2018-07-13T04:47:08.858Z,102125.58
2018-07-13T04:49:38.056Z,102127.05
2018-07-13T04:52:07.025Z,102121.02
2018-07-13T04:54:36.005Z,102120.73
2018-07-13T04:57:04.941Z,102120.94
2018-07-13T04:59:34.053Z,102126.15
2018-07-13T05:02:03.113Z,102128.03
2018-07-13T05:04:32.110Z,102133.16
2018-07-13T05:07:01.107Z,102137.66
2018-07-13T05:09:30.085Z,102133.08
2018-07-13T05:11:59.068Z,102136.19
2018-07-13T05:14:28.070Z,102140.08
2018-07-13T05:16:57.086Z,102140.39
2018-07-13T05:19:26.000Z,102139.28
2018-07-13T05:21:54.979Z,102141.58
2018-07-13T05:24:23.947Z,102139.32
2018-07-13T05:26:52.928Z,102142.47
2018-07-13T05:29:21.898Z,102140.62
2018-07-13T05:31:50.947Z,102144.67
2018-07-13T05:34:20.155Z,102148.41
2018-07-13T05:36:49.143Z,102143.98
2018-07-13T05:39:18.185Z,102150.92
2018-07-13T05:41:47.200Z,102147.64
2018-07-13T05:44:16.195Z,102145.80
2018-07-13T05:46:45.241Z,102153.34
2018-07-13T05:49:14.293Z,102152.56
2018-07-13T05:51:43.345Z,102156.27
2018-07-13T05:54:13.183Z,102151.09
2018-07-13T05:56:42.161Z,102154.30
2018-07-13T05:59:11.195Z,102159.63
2018-07-13T06:01:40.209Z,102157.73
2018-07-13T06:04:09.434Z,102155.69
2018-07-13T06:06:38.431Z,102157.44
2018-07-13T06:09:09.419Z,102155.86
2018-07-13T06:11:38.606Z,102163.30
2018-07-13T06:14:07.849Z,102162.53
2018-07-13T06:16:36.792Z,102162.15
2018-07-13T06:19:05.809Z,102158.01
2018-07-13T06:21:34.741Z,102158.96
2018-07-13T06:24:03.982Z,102161.74
2018-07-13T06:26:33.009Z,102159.03
2018-07-13T06:29:01.952Z,102170.67
2018-07-13T06:31:31.039Z,102158.03
2018-07-13T06:33:59.883Z,102157.99
2018-07-13T06:36:28.848Z,102159.95
2018-07-13T06:38:57.807Z,102162.59
2018-07-13T06:41:26.808Z,102167.44
2018-07-13T06:43:55.859Z,102167.26
2018-07-13T06:46:24.808Z,102167.81
2018-07-13T06:48:53.758Z,102165.22
2018-07-13T06:51:22.771Z,102173.18
2018-07-13T06:53:51.853Z,102159.28
2018-07-13T06:56:20.811Z,102167.87
2018-07-13T06:59:01.022Z,102170.11
2018-07-13T07:01:29.994Z,102171.81
2018-07-13T07:04:32.503Z,102170.93
2018-07-13T07:07:03.388Z,102175.25
2018-07-13T07:09:32.360Z,102176.03
2018-07-13T07:13:09.062Z,102180.38
2018-07-13T07:15:38.488Z,102175.33
2018-07-13T07:18:07.725Z,102182.34
2018-07-13T07:20:36.751Z,102181.70
2018-07-13T07:23:05.763Z,102187.16
2018-07-13T07:25:34.850Z,102186.03
2018-07-13T07:28:03.863Z,102190.10
2018-07-13T07:30:32.846Z,102184.03
2018-07-13T07:33:01.793Z,102186.53
2018-07-13T07:35:30.751Z,102180.81
2018-07-13T07:37:59.745Z,102177.62
2018-07-13T07:40:28.737Z,102177.55
2018-07-13T07:42:57.789Z,102187.75
2018-07-13T07:45:26.864Z,102180.97
2018-07-13T07:47:55.921Z,102179.40
2018-07-13T07:50:25.085Z,102187.02
2018-07-13T07:52:54.122Z,102179.34
2018-07-13T07:55:23.124Z,102180.27
2018-07-13T07:57:52.120Z,102186.27
2018-07-13T08:00:21.108Z,102192.46
2018-07-13T08:02:50.065Z,102183.51
2018-07-13T08:05:19.130Z,102182.84
2018-07-13T08:07:48.101Z,102179.78
2018-07-13T08:10:17.477Z,102171.31
2018-07-13T08:12:46.549Z,102177.05
2018-07-13T08:15:15.643Z,102173.72
2018-07-13T08:17:44.565Z,102169.09
2018-07-13T08:20:18.269Z,102176.09
2018-07-13T08:22:55.925Z,102173.22
2018-07-13T08:25:25.808Z,102172.42
2018-07-13T08:27:57.527Z,102174.65
2018-07-13T08:30:31.826Z,102175.91
2018-07-13T08:33:00.822Z,102177.52
2018-07-13T08:35:29.779Z,102187.02
2018-07-13T08:37:58.691Z,102191.38
2018-07-13T08:40:27.631Z,102179.38
2018-07-13T08:42:56.753Z,102169.92
2018-07-13T08:45:25.836Z,102176.73
2018-07-13T08:47:59.007Z,102173.09
2018-07-13T08:50:28.436Z,102171.34
2018-07-13T08:52:58.133Z,102172.36
2018-07-13T08:55:27.143Z,102170.45
2018-07-13T08:57:56.490Z,102166.25
2018-07-13T09:00:25.532Z,102173.57
2018-07-13T09:02:54.489Z,102167.39
2018-07-13T09:05:23.440Z,102175.22
2018-07-13T09:07:52.536Z,102175.02
2018-07-13T09:10:21.588Z,102163.14
2018-07-13T09:12:50.604Z,102168.02
2018-07-13T09:15:19.557Z,102170.59
2018-07-13T09:17:48.528Z,102167.64
2018-07-13T09:20:17.541Z,102167.30
2018-07-13T09:22:46.556Z,102163.53
2018-07-13T09:25:15.480Z,102167.70
2018-07-13T09:27:44.527Z,102158.71
2018-07-13T09:30:13.453Z,102165.22
2018-07-13T09:32:42.406Z,102169.33
2018-07-13T09:35:11.412Z,102178.34
2018-07-13T09:37:40.432Z,102174.76
2018-07-13T09:40:09.419Z,102177.69
2018-07-13T09:42:38.450Z,102180.27
2018-07-13T09:45:07.554Z,102187.36
2018-07-13T09:47:36.869Z,102187.05
2018-07-13T09:50:06.020Z,102189.59
2018-07-13T09:52:35.028Z,102185.98
2018-07-13T09:55:03.960Z,102190.75
2018-07-13T09:57:32.947Z,102196.59
2018-07-13T10:00:01.923Z,102192.35
2018-07-13T10:02:30.856Z,102196.34
2018-07-13T10:04:59.908Z,102183.72
2018-07-13T10:07:29.004Z,102177.32
2018-07-13T10:09:58.017Z,102177.63
2018-07-13T10:12:26.999Z,102181.48
2018-07-13T10:14:56.060Z,102179.98
2018-07-13T10:17:25.235Z,102181.83
2018-07-13T10:19:54.184Z,102189.23
2018-07-13T10:22:29.160Z,102190.88
2018-07-13T10:25:00.044Z,102196.55
2018-07-13T10:27:33.419Z,102183.94
2018-07-13T10:30:04.508Z,102185.31
2018-07-13T10:32:33.940Z,102187.56
2018-07-13T10:35:04.640Z,102176.85
2018-07-13T10:37:33.894Z,102180.55
2018-07-13T10:40:02.846Z,102180.88
2018-07-13T10:42:31.819Z,102181.25
2018-07-13T10:45:00.854Z,102173.98
2018-07-13T10:47:29.853Z,102170.41
2018-07-13T10:49:58.750Z,102172.73
2018-07-13T10:52:27.732Z,102169.52
2018-07-13T10:54:56.760Z,102167.59
2018-07-13T10:57:25.888Z,102171.66
2018-07-13T10:59:54.822Z,102177.09
2018-07-13T11:02:23.741Z,102173.30
2018-07-13T11:04:52.709Z,102164.64
2018-07-13T11:07:21.592Z,102165.56
2018-07-13T11:09:50.777Z,102164.70
2018-07-13T11:12:19.706Z,102165.45
2018-07-13T11:14:48.621Z,102154.64
2018-07-13T11:17:17.592Z,102150.03
2018-07-13T11:19:46.704Z,102151.23
2018-07-13T11:22:15.723Z,102152.07
2018-07-13T11:24:44.637Z,102148.50
2018-07-13T11:27:13.719Z,102153.86
2018-07-13T11:29:42.804Z,102145.83
2018-07-13T11:32:17.283Z,102155.67
2018-07-13T11:34:49.138Z,102142.56
2018-07-13T11:37:18.170Z,102143.00
2018-07-13T11:39:47.209Z,102143.10
2018-07-13T11:42:16.173Z,102146.36
2018-07-13T11:44:45.087Z,102142.94
2018-07-13T11:47:14.018Z,102141.73
2018-07-13T11:49:42.915Z,102144.59
2018-07-13T11:52:11.917Z,102145.20
2018-07-13T11:54:40.767Z,102140.50
2018-07-13T11:57:09.689Z,102139.36
2018-07-13T11:59:38.649Z,102143.73
2018-07-13T12:02:07.596Z,102150.55
2018-07-13T12:04:36.669Z,102133.67
2018-07-13T12:07:05.870Z,102125.72
2018-07-13T12:09:34.766Z,102128.44
2018-07-13T12:12:03.683Z,102125.48
2018-07-13T12:14:39.252Z,102121.49
2018-07-13T12:17:08.262Z,102118.41
2018-07-13T12:19:37.268Z,102119.51
2018-07-13T12:22:06.317Z,102110.55
2018-07-13T12:24:35.243Z,102118.52
2018-07-13T12:27:04.244Z,102113.91
2018-07-13T12:29:33.167Z,102112.29
2018-07-13T12:32:02.137Z,102103.59
2018-07-13T12:34:31.092Z,102105.73
2018-07-13T12:37:00.068Z,102108.80
2018-07-13T12:39:28.980Z,102105.22
2018-07-13T12:41:57.948Z,102112.20
2018-07-13T12:44:26.931Z,102110.83
2018-07-13T12:46:56.000Z,102113.66
2018-07-13T12:49:24.932Z,102113.91
2018-07-13T12:51:54.012Z,102115.56
2018-07-13T12:54:23.026Z,102119.51
2018-07-13T12:56:51.929Z,102120.02
2018-07-13T12:59:20.919Z,102118.53
2018-07-13T13:01:49.915Z,102119.03
2018-07-13T13:04:18.869Z,102124.45
2018-07-13T13:06:47.865Z,102122.98
2018-07-13T13:09:16.897Z,102120.99
2018-07-13T13:11:45.994Z,102115.69
2018-07-13T13:14:14.985Z,102126.56
2018-07-13T13:16:44.053Z,102117.78
2018-07-13T13:19:12.974Z,102116.04
2018-07-13T13:21:42.180Z,102107.11
2018-07-13T13:24:11.096Z,102112.56
2018-07-13T13:26:40.155Z,102100.99
2018-07-13T13:29:09.250Z,102109.06
2018-07-13T13:31:38.193Z,102106.84
2018-07-13T13:34:07.630Z,102123.48
2018-07-13T13:36:36.695Z,102114.17
2018-07-13T13:39:05.800Z,102113.58
2018-07-13T13:41:34.824Z,102111.59
2018-07-13T13:44:03.818Z,102122.11
2018-07-13T13:46:32.869Z,102121.98
2018-07-13T13:49:01.914Z,102116.45
2018-07-13T13:51:30.866Z,102113.42
2018-07-13T13:53:59.858Z,102117.17
2018-07-13T13:56:28.865Z,102118.21
2018-07-13T13:58:57.854Z,102116.59
2018-07-13T14:01:26.831Z,102113.07
2018-07-13T14:03:55.843Z,102118.95
2018-07-13T14:06:25.046Z,102107.80
2018-07-13T14:08:54.043Z,102108.07
2018-07-13T14:11:22.921Z,102125.15
2018-07-13T14:13:51.867Z,102120.09
2018-07-13T14:16:20.855Z,102115.70
2018-07-13T14:18:49.825Z,102119.56
2018-07-13T14:21:18.804Z,102121.91
2018-07-13T14:23:47.783Z,102112.44
2018-07-13T14:26:16.775Z,102106.60
2018-07-13T14:28:45.723Z,102110.97
2018-07-13T14:31:14.625Z,102109.95
2018-07-13T14:33:43.639Z,102110.45
2018-07-13T14:36:12.564Z,102107.41
2018-07-13T14:38:41.632Z,102108.89
2018-07-13T14:41:10.660Z,102113.53
2018-07-13T14:43:39.697Z,102107.22
2018-07-13T14:46:08.853Z,102113.80
2018-07-13T14:48:37.775Z,102112.16
2018-07-13T14:51:06.758Z,102102.91
2018-07-13T14:53:35.696Z,102094.42
2018-07-13T14:56:04.727Z,102097.23
2018-07-13T14:58:33.691Z,102095.44
2018-07-13T15:01:03.718Z,102101.13
2018-07-13T15:03:32.691Z,102100.91
2018-07-13T15:06:01.793Z,102100.28
2018-07-13T15:08:30.591Z,102105.63
2018-07-13T15:10:59.558Z,102106.09
2018-07-13T15:13:28.618Z,102096.48
2018-07-13T15:15:57.590Z,102095.80
2018-07-13T15:18:26.559Z,102095.64
2018-07-13T15:20:55.542Z,102097.16
2018-07-13T15:23:24.526Z,102091.58
2018-07-13T15:25:53.449Z,102097.28
2018-07-13T15:28:22.544Z,102097.67
2018-07-13T15:30:51.489Z,102094.94
2018-07-13T15:33:20.437Z,102085.50
2018-07-13T15:35:49.396Z,102081.05
2018-07-13T15:38:18.331Z,102082.02
2018-07-13T15:40:47.506Z,102088.11
2018-07-13T15:43:16.572Z,102082.03
2018-07-13T15:45:45.484Z,102082.77
2018-07-13T15:48:14.381Z,102091.37
2018-07-13T15:50:43.315Z,102081.64
2018-07-13T15:53:12.255Z,102084.64
2018-07-13T15:55:46.450Z,102081.68
2018-07-13T15:58:15.513Z,102075.20
2018-07-13T16:00:44.437Z,102086.98
2018-07-13T16:03:14.358Z,102087.68
2018-07-13T16:05:43.354Z,102078.64
2018-07-13T16:08:12.345Z,102080.63
2018-07-13T16:10:41.278Z,102091.03
2018-07-13T16:13:10.380Z,102084.30
2018-07-13T16:15:39.401Z,102082.95
2018-07-13T16:18:08.415Z,102081.36
2018-07-13T16:20:37.468Z,102088.28
2018-07-13T16:23:06.451Z,102075.02
2018-07-13T16:25:35.341Z,102077.16
2018-07-13T16:28:04.248Z,102074.41
2018-07-13T16:30:33.180Z,102077.36
2018-07-13T16:33:02.187Z,102067.20
2018-07-13T16:35:31.296Z,102066.28
2018-07-13T16:38:00.212Z,102078.52
2018-07-13T16:40:29.111Z,102059.63
2018-07-13T16:42:58.055Z,102052.83
2018-07-13T16:45:27.006Z,102063.74
2018-07-13T16:47:56.046Z,102067.09
2018-07-13T16:50:25.002Z,102055.66
2018-07-13T16:52:53.922Z,102062.59
2018-07-13T16:55:22.996Z,102061.63
2018-07-13T16:57:51.880Z,102055.44
2018-07-13T17:00:20.868Z,102054.00
2018-07-13T17:02:49.857Z,102057.47
2018-07-13T17:05:18.784Z,102057.70
2018-07-13T17:07:47.697Z,102049.91
2018-07-13T17:10:16.660Z,102052.75
2018-07-13T17:12:45.600Z,102044.14
2018-07-13T17:15:14.608Z,102049.05
2018-07-13T17:17:43.564Z,102050.64
2018-07-13T17:20:12.651Z,102056.34
2018-07-13T17:22:41.586Z,102056.42
2018-07-13T17:25:10.512Z,102051.23
2018-07-13T17:27:39.420Z,102046.87
2018-07-13T17:30:09.590Z,102052.09
2018-07-13T17:32:38.590Z,102054.30
2018-07-13T17:35:07.794Z,102054.31
2018-07-13T17:37:36.852Z,102048.86
2018-07-13T17:40:05.834Z,102051.86
2018-07-13T17:42:34.902Z,102055.59
2018-07-13T17:45:03.812Z,102050.26
2018-07-13T17:47:32.887Z,102052.52
2018-07-13T17:50:02.104Z,102056.57
2018-07-13T17:52:31.241Z,102060.91
2018-07-13T17:55:00.341Z,102058.72
2018-07-13T17:57:29.310Z,102065.91
2018-07-13T17:59:58.272Z,102065.62
2018-07-13T18:02:27.340Z,102058.78
2018-07-13T18:04:56.254Z,102062.66
2018-07-13T18:07:25.229Z,102056.82
2018-07-13T18:09:54.141Z,102059.91
2018-07-13T18:12:23.169Z,102057.50
2018-07-13T18:14:52.268Z,102058.56
2018-07-13T18:17:21.168Z,102055.80
2018-07-13T18:19:50.135Z,102058.49
2018-07-13T18:22:19.069Z,102056.96
2018-07-13T18:24:48.015Z,102067.77
2018-07-13T18:27:16.983Z,102064.05
2018-07-13T18:29:46.012Z,102060.41
2018-07-13T18:32:14.925Z,102060.90
2018-07-13T18:34:48.704Z,102065.41
2018-07-13T18:37:17.609Z,102069.82
2018-07-13T18:39:46.592Z,102064.02
2018-07-13T18:42:21.825Z,102060.91
2018-07-13T18:44:51.041Z,102071.70
2018-07-13T18:47:20.018Z,102078.52
2018-07-13T18:49:48.988Z,102080.80
2018-07-13T18:52:17.917Z,102081.73
2018-07-13T18:55:49.969Z,102074.94
2018-07-13T18:58:18.865Z,102076.80
2018-07-13T19:00:47.783Z,102079.93
2018-07-13T19:03:16.751Z,102071.88
2018-07-13T19:05:45.821Z,102076.86
2018-07-13T19:08:14.785Z,102079.33
2018-07-13T19:10:43.748Z,102080.03
2018-07-13T19:13:12.803Z,102072.68
2018-07-13T19:15:45.283Z,102075.04
2018-07-13T19:18:14.141Z,102079.17
2018-07-13T19:20:43.114Z,102082.91
2018-07-13T19:23:12.142Z,102089.61
2018-07-13T19:25:41.040Z,102083.75
2018-07-13T19:28:10.183Z,102083.02
2018-07-13T19:30:40.927Z,102076.25
2018-07-13T19:33:09.813Z,102082.09
2018-07-13T19:35:38.725Z,102079.92
2018-07-13T19:38:07.660Z,102077.41
2018-07-13T19:40:36.585Z,102083.14
2018-07-13T19:43:05.668Z,102093.88
2018-07-13T19:45:34.672Z,102088.52
2018-07-13T19:48:03.614Z,102083.28
2018-07-13T19:50:32.625Z,102091.83
2018-07-13T19:53:01.850Z,102095.20
2018-07-13T19:55:30.856Z,102097.15
2018-07-13T19:57:59.784Z,102091.17
2018-07-13T20:00:28.886Z,102099.55
2018-07-13T20:02:57.809Z,102097.70
2018-07-13T20:05:26.844Z,102093.71
2018-07-13T20:07:55.811Z,102103.05
2018-07-13T20:10:24.714Z,102099.14
2018-07-13T20:12:53.704Z,102096.00
2018-07-13T20:15:22.661Z,102099.06
2018-07-13T20:17:51.629Z,102110.39
2018-07-13T20:20:20.564Z,102107.59
2018-07-13T20:22:49.518Z,102107.13
2018-07-13T20:25:18.455Z,102106.75
2018-07-13T20:27:47.458Z,102106.98
2018-07-13T20:30:16.528Z,102106.48
2018-07-13T20:32:45.460Z,102112.36
2018-07-13T20:35:14.405Z,102116.83
2018-07-13T20:37:43.337Z,102105.14
2018-07-13T20:40:12.346Z,102110.25
2018-07-13T20:42:41.290Z,102110.25
2018-07-13T20:45:10.292Z,102111.23
2018-07-13T20:47:39.255Z,102117.25
2018-07-13T20:50:08.135Z,102118.61
2018-07-13T20:52:37.132Z,102115.59
2018-07-13T20:55:06.020Z,102116.09
2018-07-13T20:57:34.909Z,102122.87
2018-07-13T21:00:04.170Z,102121.23
2018-07-13T21:02:34.168Z,102125.55
2018-07-13T21:05:03.124Z,102120.81
2018-07-13T21:07:32.073Z,102125.68
2018-07-13T21:10:01.022Z,102126.45
2018-07-13T21:12:30.023Z,102133.73
2018-07-13T21:14:58.945Z,102132.28
2018-07-13T21:17:27.855Z,102134.59
2018-07-13T21:19:56.827Z,102134.97
2018-07-13T21:22:25.679Z,102135.67
2018-07-13T21:24:54.595Z,102133.88
2018-07-13T21:27:23.601Z,102135.05
2018-07-13T21:29:52.789Z,102138.17
2018-07-13T21:32:21.709Z,102138.17
2018-07-13T21:34:50.704Z,102134.38
2018-07-13T21:37:19.612Z,102127.71
2018-07-13T21:39:48.524Z,102131.11
2018-07-13T21:42:17.541Z,102132.16
2018-07-13T21:44:46.441Z,102136.90
2018-07-13T21:47:15.398Z,102134.86
2018-07-13T21:49:44.329Z,102136.32
2018-07-13T21:52:13.384Z,102133.42
2018-07-13T21:54:42.170Z,102130.98
2018-07-13T21:57:11.102Z,102128.27
2018-07-13T21:59:40.223Z,102130.12
2018-07-13T22:02:09.210Z,102130.20
2018-07-13T22:04:38.134Z,102135.08
2018-07-13T22:07:07.052Z,102124.91
2018-07-13T22:09:35.972Z,102126.53
2018-07-13T22:12:04.976Z,102130.98
2018-07-13T22:14:33.900Z,102131.27
2018-07-13T22:17:02.934Z,102131.02
2018-07-13T22:19:31.886Z,102132.55
2018-07-13T22:22:00.810Z,102134.28
2018-07-13T22:24:29.736Z,102135.27
2018-07-13T22:26:58.659Z,102134.87
2018-07-13T22:29:27.641Z,102129.05
2018-07-13T22:31:56.524Z,102134.48
2018-07-13T22:34:25.428Z,102138.25
2018-07-13T22:36:54.324Z,102147.66
2018-07-13T22:39:23.229Z,102146.80
2018-07-13T22:41:52.135Z,102145.20
2018-07-13T22:44:21.222Z,102147.25
2018-07-13T22:46:50.100Z,102146.03
2018-07-13T22:49:19.038Z,102145.06
2018-07-13T22:51:47.936Z,102142.33
2018-07-13T22:54:16.895Z,102148.33
2018-07-13T22:56:45.828Z,102153.09
2018-07-13T22:59:14.791Z,102151.16
2018-07-13T23:01:43.908Z,102151.59
2018-07-13T23:04:12.899Z,102157.02
2018-07-13T23:06:41.828Z,102162.16
2018-07-13T23:09:10.777Z,102164.91
2018-07-13T23:11:39.725Z,102157.90
2018-07-13T23:14:08.656Z,102156.54
2018-07-13T23:16:37.609Z,102158.37
2018-07-13T23:19:06.840Z,102152.39
2018-07-13T23:21:35.775Z,102158.86
2018-07-13T23:24:04.694Z,102158.13
2018-07-13T23:26:33.597Z,102151.00
2018-07-13T23:29:02.587Z,102153.17
2018-07-13T23:31:31.485Z,102158.66
2018-07-13T23:34:00.471Z,102154.67
2018-07-13T23:36:29.437Z,102156.54
2018-07-13T23:38:58.331Z,102162.48
2018-07-13T23:41:27.249Z,102155.57
2018-07-13T23:43:56.182Z,102156.00
2018-07-13T23:46:25.111Z,102151.91
2018-07-13T23:48:54.027Z,102150.06
2018-07-13T23:51:23.022Z,102151.42
2018-07-13T23:53:52.048Z,102145.45
2018-07-13T23:56:21.546Z,102141.64
2018-07-13T23:58:50.522Z,102143.59
